createdAt,value
2023-06-10T00:00:19.193Z,50.31
2023-06-10T00:03:09.971Z,49.99
2023-06-10T00:05:39.761Z,51.11
2023-06-10T00:08:09.255Z,51.38
2023-06-10T00:10:39.569Z,51.33
2023-06-10T00:13:10.040Z,51.28
2023-06-10T00:15:40.123Z,51.22
2023-06-10T00:18:11.265Z,51.18
2023-06-10T00:20:40.261Z,51.45
2023-06-10T00:23:09.599Z,50.95
2023-06-10T00:25:38.530Z,51.17
2023-06-10T00:28:07.131Z,51.19
2023-06-10T00:30:35.984Z,51.18
2023-06-10T00:33:04.708Z,51.61
2023-06-10T00:35:34.940Z,51.60
2023-06-10T00:38:03.615Z,51.74
2023-06-10T00:40:32.605Z,51.52
2023-06-10T00:43:01.246Z,51.34
2023-06-10T00:45:30.154Z,51.33
2023-06-10T00:48:00.502Z,51.43
2023-06-10T00:50:29.952Z,51.12
2023-06-10T00:53:02.144Z,51.00
2023-06-10T00:55:31.409Z,51.02
2023-06-10T00:58:00.201Z,50.83
2023-06-10T01:00:29.200Z,50.86
2023-06-10T01:02:58.141Z,51.17
2023-06-10T01:05:29.759Z,51.66
2023-06-10T01:08:06.628Z,51.55
2023-06-10T01:10:40.731Z,51.71
2023-06-10T01:13:12.962Z,51.37
2023-06-10T01:15:42.016Z,51.63
2023-06-10T01:18:16.342Z,52.01
2023-06-10T01:20:47.666Z,51.95
2023-06-10T01:23:17.983Z,52.29
2023-06-10T01:25:51.954Z,52.42
2023-06-10T01:28:29.669Z,52.35
2023-06-10T01:31:09.223Z,52.36
2023-06-10T01:33:43.526Z,52.76
2023-06-10T01:36:13.530Z,52.59
2023-06-10T01:38:46.496Z,52.58
2023-06-10T01:41:19.075Z,52.36
2023-06-10T01:43:48.209Z,52.53
2023-06-10T01:46:20.947Z,52.94
2023-06-10T01:48:50.035Z,53.65
2023-06-10T01:51:19.216Z,53.37
2023-06-10T01:53:49.358Z,53.09
2023-06-10T01:56:20.520Z,53.17
2023-06-10T01:58:49.201Z,53.64
2023-06-10T02:01:18.286Z,53.46
2023-06-10T02:03:46.983Z,53.44
2023-06-10T02:06:15.987Z,53.30
2023-06-10T02:08:44.567Z,53.38
2023-06-10T02:11:15.129Z,53.31
2023-06-10T02:13:43.843Z,53.27
2023-06-10T02:16:14.153Z,53.38
2023-06-10T02:18:45.374Z,53.98
2023-06-10T02:21:14.345Z,54.38
2023-06-10T02:23:42.919Z,53.90
2023-06-10T02:26:11.918Z,55.09
2023-06-10T02:28:44.781Z,55.12
2023-06-10T02:31:13.809Z,56.37
2023-06-10T02:33:43.075Z,55.94
2023-06-10T02:36:14.532Z,55.96
2023-06-10T02:38:43.843Z,55.61
2023-06-10T02:41:13.211Z,55.46
2023-06-10T02:43:44.530Z,54.84
2023-06-10T02:46:14.418Z,54.97
2023-06-10T02:48:45.027Z,54.50
2023-06-10T02:51:16.551Z,54.51
2023-06-10T02:53:49.387Z,54.18
2023-06-10T02:56:19.358Z,54.00
2023-06-10T02:58:49.955Z,54.16
2023-06-10T03:01:20.321Z,54.18
2023-06-10T03:03:58.186Z,53.90
2023-06-10T03:06:27.537Z,53.72
2023-06-10T03:09:05.278Z,53.64
2023-06-10T03:11:34.506Z,53.63
2023-06-10T03:14:04.946Z,53.82
2023-06-10T03:16:35.151Z,53.68
2023-06-10T03:19:03.788Z,53.55
2023-06-10T03:21:34.282Z,53.69
2023-06-10T03:24:03.074Z,53.55
2023-06-10T03:26:32.429Z,53.19
2023-06-10T03:29:01.524Z,53.27
2023-06-10T03:31:32.298Z,53.16
2023-06-10T03:34:01.180Z,53.56
2023-06-10T03:36:31.324Z,53.11
2023-06-10T03:39:00.422Z,53.05
2023-06-10T03:41:29.768Z,53.20
2023-06-10T03:43:58.983Z,52.72
2023-06-10T03:46:27.998Z,52.69
2023-06-10T03:48:58.728Z,52.45
2023-06-10T03:51:27.703Z,55.60
2023-06-10T03:53:56.373Z,60.81
2023-06-10T03:56:26.790Z,63.73
2023-06-10T03:58:55.997Z,62.51
2023-06-10T04:01:25.705Z,61.06
2023-06-10T04:03:55.311Z,63.08
2023-06-10T04:06:26.696Z,62.76
2023-06-10T04:08:57.145Z,62.52
2023-06-10T04:11:26.269Z,60.89
2023-06-10T04:13:55.072Z,59.97
2023-06-10T04:16:24.667Z,58.65
2023-06-10T04:18:53.547Z,58.15
2023-06-10T04:21:23.152Z,57.32
2023-06-10T04:23:53.911Z,56.64
2023-06-10T04:26:23.192Z,55.72
2023-06-10T04:28:53.963Z,55.22
2023-06-10T04:31:23.581Z,54.82
2023-06-10T04:33:52.266Z,54.82
2023-06-10T04:36:21.214Z,54.09
2023-06-10T04:38:49.829Z,55.04
2023-06-10T04:41:20.619Z,57.48
2023-06-10T04:43:49.304Z,58.55
2023-06-10T04:46:18.516Z,59.04
2023-06-10T04:48:48.232Z,57.33
2023-06-10T04:51:17.721Z,56.63
2023-06-10T04:53:47.005Z,55.61
2023-06-10T04:56:16.545Z,55.19
2023-06-10T04:58:46.513Z,54.63
2023-06-10T05:01:15.458Z,53.83
2023-06-10T05:03:44.129Z,53.92
2023-06-10T05:06:13.144Z,52.82
2023-06-10T05:08:41.765Z,52.09
2023-06-10T05:11:11.115Z,51.06
2023-06-10T05:13:41.303Z,50.48
2023-06-10T05:16:11.765Z,50.15
2023-06-10T05:18:40.351Z,49.78
2023-06-10T05:21:09.517Z,49.47
2023-06-10T05:23:38.268Z,49.41
2023-06-10T05:26:07.545Z,49.12
2023-06-10T05:28:36.409Z,48.72
2023-06-10T05:31:05.332Z,47.75
2023-06-10T05:33:35.369Z,47.94
2023-06-10T05:36:04.689Z,47.28
2023-06-10T05:38:33.452Z,47.04
2023-06-10T05:41:02.434Z,46.10
2023-06-10T05:43:30.986Z,45.87
2023-06-10T05:46:00.037Z,45.40
2023-06-10T05:48:28.657Z,45.13
2023-06-10T05:50:59.066Z,44.98
2023-06-10T05:53:27.643Z,44.59
2023-06-10T05:55:58.611Z,44.83
2023-06-10T05:58:27.245Z,44.71
2023-06-10T06:00:56.157Z,44.00
2023-06-10T06:03:25.256Z,43.84
2023-06-10T06:05:54.311Z,43.30
2023-06-10T06:08:24.314Z,43.39
2023-06-10T06:10:53.289Z,42.93
2023-06-10T06:13:21.924Z,41.96
2023-06-10T06:15:50.983Z,42.46
2023-06-10T06:18:20.592Z,42.04
2023-06-10T06:20:49.574Z,41.74
2023-06-10T06:23:18.273Z,41.28
2023-06-10T06:25:48.591Z,40.74
2023-06-10T06:28:17.440Z,40.74
2023-06-10T06:30:46.429Z,40.62
2023-06-10T06:33:15.641Z,40.95
2023-06-10T06:35:44.810Z,41.37
2023-06-10T06:38:13.586Z,40.90
2023-06-10T06:40:42.608Z,40.16
2023-06-10T06:43:12.607Z,39.83
2023-06-10T06:45:52.367Z,39.40
2023-06-10T06:48:21.292Z,39.20
2023-06-10T06:50:50.633Z,38.30
2023-06-10T06:53:19.251Z,38.53
2023-06-10T06:55:48.176Z,38.49
2023-06-10T06:58:18.202Z,37.72
2023-06-10T07:00:47.176Z,37.73
2023-06-10T07:03:16.676Z,37.30
2023-06-10T07:05:45.760Z,37.52
2023-06-10T07:08:14.507Z,37.40
2023-06-10T07:10:45.165Z,37.53
2023-06-10T07:13:15.423Z,37.82
2023-06-10T07:15:46.175Z,37.79
2023-06-10T07:18:14.811Z,37.95
2023-06-10T07:20:43.801Z,38.14
2023-06-10T07:23:12.403Z,38.34
2023-06-10T07:25:41.362Z,39.32
2023-06-10T07:28:10.330Z,39.93
2023-06-10T07:30:39.219Z,40.67
2023-06-10T07:33:09.291Z,40.60
2023-06-10T07:35:38.465Z,40.95
2023-06-10T07:38:07.038Z,42.84
2023-06-10T07:40:36.016Z,43.20
2023-06-10T07:43:04.639Z,44.23
2023-06-10T07:45:33.567Z,44.83
2023-06-10T07:48:02.332Z,44.02
2023-06-10T07:50:32.622Z,43.98
2023-06-10T07:53:01.590Z,43.88
2023-06-10T07:55:30.469Z,45.14
2023-06-10T07:57:59.185Z,45.22
2023-06-10T08:00:28.067Z,45.65
2023-06-10T08:02:56.956Z,45.51
2023-06-10T08:05:27.434Z,45.44
2023-06-10T08:07:59.676Z,45.90
2023-06-10T08:10:30.240Z,46.17
2023-06-10T08:12:58.899Z,46.16
2023-06-10T08:15:28.303Z,46.21
2023-06-10T08:17:57.701Z,46.36
2023-06-10T08:20:26.992Z,45.49
2023-06-10T08:22:58.339Z,45.17
2023-06-10T08:25:27.284Z,43.10
2023-06-10T08:27:57.666Z,44.32
2023-06-10T08:30:26.814Z,43.94
2023-06-10T08:32:56.871Z,44.06
2023-06-10T08:35:25.852Z,43.48
2023-06-10T08:37:54.617Z,43.51
2023-06-10T08:40:25.474Z,43.49
2023-06-10T08:43:03.065Z,43.71
2023-06-10T08:45:36.690Z,42.19
2023-06-10T08:48:07.892Z,41.60
2023-06-10T08:50:40.070Z,40.91
2023-06-10T08:53:10.049Z,41.50
2023-06-10T08:55:42.956Z,40.97
2023-06-10T08:58:12.290Z,42.30
2023-06-10T09:00:41.377Z,40.58
2023-06-10T09:03:11.403Z,40.93
2023-06-10T09:05:40.608Z,40.13
2023-06-10T09:08:10.342Z,40.43
2023-06-10T09:10:41.200Z,40.53
2023-06-10T09:13:10.202Z,39.97
2023-06-10T09:15:41.369Z,39.46
2023-06-10T09:18:10.338Z,39.50
2023-06-10T09:20:41.173Z,40.05
2023-06-10T09:23:10.184Z,39.73
2023-06-10T09:25:41.657Z,39.94
2023-06-10T09:28:16.675Z,39.05
2023-06-10T09:30:45.450Z,38.41
2023-06-10T09:33:17.434Z,38.16
2023-06-10T09:35:50.667Z,38.36
2023-06-10T09:38:23.317Z,37.53
2023-06-10T09:40:54.928Z,37.50
2023-06-10T09:43:24.499Z,36.69
2023-06-10T09:45:54.645Z,36.39
2023-06-10T09:48:24.904Z,36.36
2023-06-10T09:50:53.949Z,37.36
2023-06-10T09:53:23.290Z,37.36
2023-06-10T09:55:54.725Z,35.87
2023-06-10T09:58:37.557Z,34.90
2023-06-10T10:01:11.715Z,35.10
2023-06-10T10:03:46.658Z,35.22
2023-06-10T10:06:16.664Z,36.40
2023-06-10T10:08:45.726Z,36.61
2023-06-10T10:11:18.701Z,36.51
2023-06-10T10:13:49.914Z,38.65
2023-06-10T10:16:21.716Z,38.29
2023-06-10T10:18:56.835Z,37.86
2023-06-10T10:21:28.874Z,37.42
2023-06-10T10:24:05.318Z,37.98
2023-06-10T10:26:36.690Z,39.77
2023-06-10T10:29:12.736Z,41.37
2023-06-10T10:31:45.263Z,41.48
2023-06-10T10:34:18.008Z,40.60
2023-06-10T10:36:49.156Z,40.49
2023-06-10T10:39:18.958Z,39.28
2023-06-10T10:41:51.628Z,39.29
2023-06-10T10:44:22.089Z,38.57
2023-06-10T10:46:52.664Z,37.82
2023-06-10T10:49:24.649Z,38.87
2023-06-10T10:52:00.753Z,38.77
2023-06-10T10:54:34.461Z,38.39
2023-06-10T10:57:18.336Z,38.38
2023-06-10T11:00:00.812Z,37.44
2023-06-10T11:02:44.467Z,36.04
2023-06-10T11:05:16.346Z,36.98
2023-06-10T11:07:55.641Z,36.46
2023-06-10T11:10:32.959Z,35.87
2023-06-10T11:13:08.727Z,34.93
2023-06-10T11:15:41.748Z,35.37
2023-06-10T11:18:22.543Z,34.90
2023-06-10T11:21:00.554Z,33.84
2023-06-10T11:23:46.468Z,33.70
2023-06-10T11:26:33.890Z,32.75
2023-06-10T11:29:11.356Z,32.17
2023-06-10T11:31:48.406Z,31.12
2023-06-10T11:34:24.351Z,31.60
2023-06-10T11:36:54.115Z,30.92
2023-06-10T11:39:25.624Z,31.03
2023-06-10T11:41:54.928Z,30.55
2023-06-10T11:44:31.162Z,30.35
2023-06-10T11:47:00.450Z,30.30
2023-06-10T11:49:29.128Z,29.31
2023-06-10T11:51:58.086Z,31.47
2023-06-10T11:54:26.830Z,32.45
2023-06-10T11:57:00.888Z,32.47
2023-06-10T11:59:31.457Z,31.77
2023-06-10T12:02:00.981Z,30.14
2023-06-10T12:04:29.774Z,30.45
2023-06-10T12:06:58.717Z,33.53
2023-06-10T12:09:29.484Z,34.35
2023-06-10T12:12:01.541Z,33.90
2023-06-10T12:14:56.274Z,32.56
2023-06-10T12:17:38.393Z,31.46
2023-06-10T12:20:09.412Z,30.25
2023-06-10T12:22:39.257Z,29.64
2023-06-10T12:25:09.760Z,29.64
2023-06-10T12:27:40.346Z,30.13
2023-06-10T12:30:11.064Z,29.13
2023-06-10T12:32:43.143Z,28.25
2023-06-10T12:35:14.909Z,30.69
2023-06-10T12:37:44.345Z,30.09
2023-06-10T12:40:13.809Z,28.26
2023-06-10T12:42:43.247Z,26.93
2023-06-10T12:45:14.611Z,25.83
2023-06-10T12:47:44.021Z,25.48
2023-06-10T12:50:14.091Z,26.44
2023-06-10T12:52:43.560Z,27.53
2023-06-10T12:55:12.794Z,28.00
2023-06-10T12:57:51.238Z,27.24
2023-06-10T13:00:21.831Z,28.11
2023-06-10T13:02:52.371Z,29.60
2023-06-10T13:05:21.820Z,28.98
2023-06-10T13:07:51.793Z,27.25
2023-06-10T13:10:23.402Z,26.83
2023-06-10T13:12:55.867Z,25.42
2023-06-10T13:15:27.734Z,25.33
2023-06-10T13:17:56.957Z,24.48
2023-06-10T13:20:25.883Z,27.56
2023-06-10T13:22:54.841Z,29.65
2023-06-10T13:25:24.246Z,29.84
2023-06-10T13:27:53.239Z,30.20
2023-06-10T13:30:21.840Z,29.89
2023-06-10T13:32:52.164Z,30.62
2023-06-10T13:35:20.917Z,29.54
2023-06-10T13:37:49.901Z,31.03
2023-06-10T13:40:20.795Z,30.84
2023-06-10T13:42:52.051Z,30.83
2023-06-10T13:45:20.927Z,28.87
2023-06-10T13:47:51.368Z,28.07
2023-06-10T13:50:20.150Z,26.29
2023-06-10T13:52:49.106Z,25.90
2023-06-10T13:55:18.704Z,25.69
2023-06-10T13:57:47.564Z,25.69
2023-06-10T14:00:17.005Z,27.07
2023-06-10T14:02:46.028Z,27.91
2023-06-10T14:05:16.472Z,29.78
2023-06-10T14:07:45.555Z,30.83
2023-06-10T14:10:14.404Z,30.77
2023-06-10T14:12:43.368Z,30.75
2023-06-10T14:15:15.402Z,31.81
2023-06-10T14:17:44.744Z,31.39
2023-06-10T14:20:14.568Z,31.41
2023-06-10T14:22:44.904Z,31.88
2023-06-10T14:25:13.713Z,31.79
2023-06-10T14:27:43.198Z,31.15
2023-06-10T14:30:12.853Z,31.27
2023-06-10T14:32:42.053Z,31.24
2023-06-10T14:35:11.192Z,30.90
2023-06-10T14:37:40.329Z,31.08
2023-06-10T14:40:11.353Z,30.86
2023-06-10T14:42:40.332Z,31.08
2023-06-10T14:45:11.397Z,32.35
2023-06-10T14:47:41.084Z,32.58
2023-06-10T14:50:10.851Z,32.34
2023-06-10T14:52:39.923Z,32.99
2023-06-10T14:55:11.081Z,33.42
2023-06-10T14:57:40.354Z,33.40
2023-06-10T15:00:10.267Z,33.87
2023-06-10T15:02:39.371Z,35.78
2023-06-10T15:05:09.221Z,36.45
2023-06-10T15:07:38.386Z,36.24
2023-06-10T15:10:08.318Z,35.99
2023-06-10T15:12:39.081Z,36.86
2023-06-10T15:15:08.569Z,36.12
2023-06-10T15:17:37.935Z,35.77
2023-06-10T15:20:08.028Z,35.85
2023-06-10T15:22:36.999Z,35.13
2023-06-10T15:25:17.393Z,34.57
2023-06-10T15:27:56.089Z,34.42
2023-06-10T15:30:25.005Z,33.91
2023-06-10T15:32:54.300Z,33.67
2023-06-10T15:35:23.116Z,33.58
2023-06-10T15:37:53.001Z,33.36
2023-06-10T15:40:21.947Z,33.49
2023-06-10T15:42:51.088Z,33.55
2023-06-10T15:45:21.202Z,33.45
2023-06-10T15:47:50.203Z,32.73
2023-06-10T15:50:19.088Z,33.11
2023-06-10T15:52:48.250Z,32.90
2023-06-10T15:55:17.094Z,33.12
2023-06-10T15:57:45.993Z,32.79
2023-06-10T16:00:15.894Z,33.49
2023-06-10T16:02:46.237Z,33.31
2023-06-10T16:05:14.898Z,33.12
2023-06-10T16:07:43.958Z,32.78
2023-06-10T16:10:12.686Z,32.74
2023-06-10T16:12:41.666Z,32.88
2023-06-10T16:15:11.295Z,32.48
2023-06-10T16:17:40.551Z,32.85
2023-06-10T16:20:11.743Z,32.62
2023-06-10T16:22:40.707Z,33.04
2023-06-10T16:25:10.665Z,32.52
2023-06-10T16:27:39.890Z,32.29
2023-06-10T16:30:09.878Z,33.15
2023-06-10T16:32:39.211Z,33.16
2023-06-10T16:35:08.753Z,33.88
2023-06-10T16:37:39.420Z,33.50
2023-06-10T16:40:09.043Z,33.19
2023-06-10T16:42:38.167Z,34.21
2023-06-10T16:45:08.316Z,33.84
2023-06-10T16:47:37.807Z,33.20
2023-06-10T16:50:07.312Z,33.05
2023-06-10T16:52:36.308Z,33.11
2023-06-10T16:55:07.968Z,32.81
2023-06-10T16:57:37.266Z,32.89
2023-06-10T17:00:07.485Z,34.04
2023-06-10T17:02:36.479Z,33.48
2023-06-10T17:05:05.644Z,33.50
2023-06-10T17:07:35.850Z,32.63
2023-06-10T17:10:06.476Z,33.68
2023-06-10T17:12:35.661Z,33.10
2023-06-10T17:15:04.723Z,33.75
2023-06-10T17:17:34.384Z,34.00
2023-06-10T17:20:03.411Z,34.13
2023-06-10T17:22:32.945Z,33.88
2023-06-10T17:25:01.697Z,34.17
2023-06-10T17:27:32.317Z,34.51
2023-06-10T17:30:00.998Z,34.88
2023-06-10T17:32:30.260Z,35.10
2023-06-10T17:34:58.943Z,35.30
2023-06-10T17:37:27.905Z,36.77
2023-06-10T17:39:56.604Z,37.08
2023-06-10T17:42:25.885Z,36.28
2023-06-10T17:44:55.962Z,36.93
2023-06-10T17:47:25.042Z,36.59
2023-06-10T17:49:53.762Z,36.38
2023-06-10T17:52:22.659Z,36.23
2023-06-10T17:54:51.401Z,36.23
2023-06-10T17:57:20.705Z,36.44
2023-06-10T17:59:49.767Z,36.20
2023-06-10T18:02:20.330Z,36.26
2023-06-10T18:04:49.004Z,36.48
2023-06-10T18:07:18.210Z,35.72
2023-06-10T18:09:47.028Z,35.81
2023-06-10T18:12:16.143Z,35.70
2023-06-10T18:14:44.791Z,35.30
2023-06-10T18:17:13.879Z,35.70
2023-06-10T18:19:43.950Z,35.75
2023-06-10T18:22:13.788Z,35.86
2023-06-10T18:24:43.037Z,35.53
2023-06-10T18:27:14.161Z,35.85
2023-06-10T18:29:46.061Z,35.62
2023-06-10T18:32:16.015Z,35.92
2023-06-10T18:34:47.469Z,36.09
2023-06-10T18:37:18.039Z,35.93
2023-06-10T18:39:46.934Z,36.29
2023-06-10T18:42:16.244Z,37.41
2023-06-10T18:44:45.662Z,38.62
2023-06-10T18:47:14.720Z,40.49
2023-06-10T18:49:43.487Z,40.17
2023-06-10T18:52:14.948Z,39.89
2023-06-10T18:54:43.919Z,40.34
2023-06-10T18:57:14.442Z,40.69
2023-06-10T18:59:44.084Z,41.11
2023-06-10T19:02:13.937Z,41.18
2023-06-10T19:04:43.975Z,40.90
2023-06-10T19:07:14.386Z,40.39
2023-06-10T19:09:43.172Z,40.50
2023-06-10T19:12:13.994Z,40.59
2023-06-10T19:14:43.323Z,40.81
2023-06-10T19:17:12.646Z,40.59
2023-06-10T19:19:41.320Z,40.72
2023-06-10T19:22:10.442Z,40.60
2023-06-10T19:24:40.766Z,40.34
2023-06-10T19:27:09.912Z,40.62
2023-06-10T19:29:38.625Z,40.80
2023-06-10T19:32:08.846Z,40.75
2023-06-10T19:34:37.504Z,41.28
2023-06-10T19:37:07.057Z,41.79
2023-06-10T19:39:36.348Z,42.56
2023-06-10T19:42:11.426Z,42.53
2023-06-10T19:44:41.447Z,42.92
2023-06-10T19:47:11.966Z,43.16
2023-06-10T19:49:41.206Z,43.32
2023-06-10T19:52:10.573Z,43.45
2023-06-10T19:54:39.278Z,43.73
2023-06-10T19:57:09.749Z,43.56
2023-06-10T19:59:38.449Z,43.90
2023-06-10T20:02:08.250Z,43.82
2023-06-10T20:04:38.024Z,44.06
2023-06-10T20:07:07.859Z,46.42
2023-06-10T20:09:36.692Z,46.12
2023-06-10T20:12:06.543Z,46.26
2023-06-10T20:14:37.324Z,46.40
2023-06-10T20:17:06.577Z,46.24
2023-06-10T20:19:35.162Z,45.96
2023-06-10T20:22:05.151Z,46.01
2023-06-10T20:24:33.963Z,45.88
2023-06-10T20:27:02.953Z,46.59
2023-06-10T20:29:31.811Z,46.32
2023-06-10T20:32:02.297Z,46.69
2023-06-10T20:34:30.954Z,46.92
2023-06-10T20:36:59.894Z,47.37
2023-06-10T20:39:28.666Z,47.51
2023-06-10T20:41:58.111Z,47.71
2023-06-10T20:44:27.393Z,48.03
2023-06-10T20:46:56.334Z,48.17
2023-06-10T20:49:26.520Z,48.00
2023-06-10T20:51:55.541Z,47.70
2023-06-10T20:54:24.104Z,47.80
2023-06-10T20:56:53.073Z,48.02
2023-06-10T20:59:21.709Z,48.11
2023-06-10T21:01:51.171Z,48.61
2023-06-10T21:04:19.874Z,48.35
2023-06-10T21:06:50.185Z,48.95
2023-06-10T21:09:18.830Z,48.70
2023-06-10T21:11:47.840Z,48.77
2023-06-10T21:14:16.750Z,49.07
2023-06-10T21:16:47.085Z,48.78
2023-06-10T21:19:15.993Z,48.88
2023-06-10T21:21:44.910Z,49.06
2023-06-10T21:24:14.991Z,49.28
2023-06-10T21:26:43.972Z,49.19
2023-06-10T21:29:13.220Z,49.32
2023-06-10T21:31:42.204Z,49.26
2023-06-10T21:34:10.800Z,49.30
2023-06-10T21:36:39.697Z,49.06
2023-06-10T21:39:08.410Z,49.46
2023-06-10T21:41:38.827Z,49.28
2023-06-10T21:44:07.830Z,49.59
2023-06-10T21:46:36.683Z,49.56
2023-06-10T21:49:05.535Z,49.71
2023-06-10T21:51:34.618Z,49.79
2023-06-10T21:54:03.467Z,49.59
2023-06-10T21:56:34.706Z,50.16
2023-06-10T21:59:05.052Z,49.65
2023-06-10T22:01:36.796Z,49.71
2023-06-10T22:04:05.923Z,49.71
2023-06-10T22:06:35.206Z,49.65
2023-06-10T22:09:03.759Z,50.04
2023-06-10T22:11:32.816Z,50.08
2023-06-10T22:14:01.532Z,50.25
2023-06-10T22:16:32.040Z,50.40
2023-06-10T22:19:00.762Z,50.15
2023-06-10T22:21:30.318Z,49.95
2023-06-10T22:23:59.135Z,49.86
2023-06-10T22:26:43.550Z,50.35
2023-06-10T22:29:18.031Z,50.33
2023-06-10T22:31:49.910Z,50.68
2023-06-10T22:34:18.760Z,50.33
2023-06-10T22:36:47.706Z,50.50
2023-06-10T22:39:16.417Z,50.40
2023-06-10T22:41:45.918Z,50.47
2023-06-10T22:44:14.948Z,50.21
2023-06-10T22:46:43.972Z,50.07
2023-06-10T22:49:14.638Z,50.28
2023-06-10T22:51:44.462Z,50.39
2023-06-10T22:54:15.161Z,50.47
2023-06-10T22:56:44.573Z,51.01
2023-06-10T22:59:13.276Z,50.85
2023-06-10T23:01:42.396Z,50.65
2023-06-10T23:04:11.184Z,50.85
2023-06-10T23:06:41.456Z,51.22
2023-06-10T23:09:10.956Z,51.05
2023-06-10T23:11:40.404Z,50.75
2023-06-10T23:14:09.662Z,51.54
2023-06-10T23:16:46.900Z,50.72
2023-06-10T23:19:19.428Z,50.93
2023-06-10T23:21:54.341Z,51.47
2023-06-10T23:24:28.286Z,50.92
2023-06-10T23:26:58.703Z,51.46
2023-06-10T23:29:27.306Z,51.21
2023-06-10T23:31:57.117Z,51.53
2023-06-10T23:34:26.129Z,51.23
2023-06-10T23:36:57.645Z,51.38
2023-06-10T23:39:26.241Z,50.91
2023-06-10T23:41:54.901Z,50.90
2023-06-10T23:44:23.898Z,51.24
2023-06-10T23:46:52.439Z,50.78
2023-06-10T23:49:21.365Z,51.32
2023-06-10T23:51:49.973Z,50.93
2023-06-10T23:54:20.264Z,50.97
2023-06-10T23:56:49.138Z,50.74
2023-06-10T23:59:18.026Z,50.98
